weather.gov     
National Weather Service

Terminal Aerodrome Forecast
NWS Homepage
This page is being discontinued on March 12, 2014.
The same data is available at this site. Please update your bookmarks.
Thank you, and we apologize for the inconvenience.
Please send an email to SR-SRH.Webmaster@noaa.gov with any concerns.


Current Version
Previous Version:    01  02  03  04  05  06  07  08  09  10  11  12  13  14  15  16  17  18  19  20  21  22  23  24  25  
[Printable]
457
FTUS42 TJSJ 220500 RRA
TAFJMZ
TAF
TJMZ 220550Z 2206/2306 06010KT P6SM VCSH SCT025 BKN040
     FM221300 09012KT P6SM VCTS SCT020CB BKN040 OVC060
      TEMPO 2213/2216 VRB10G22KT 4SM TSRA BKN030CB BKN040 OVC060
     FM222000 12010KT P6SM VCSH BKN025
      AMD NOT SKED TIL 221600=


U.S. Dept. of Commerce
NOAA National Weather Service
1325 East West Highway
Silver Spring, MD 20910
E-mail: w-nws.webmaster@noaa.gov
Page last modified: May 16, 2007
NATIONAL WEATHER SERVICE: for Safety, for Work, for Fun - FOR LIFE